createdAt,value
2023-11-18T00:00:01.927Z,5.43
2023-11-18T00:02:29.037Z,5.72
2023-11-18T00:04:56.212Z,5.47
2023-11-18T00:07:23.187Z,5.32
2023-11-18T00:09:50.204Z,3.08
2023-11-18T00:12:17.608Z,5.10
2023-11-18T00:14:44.621Z,4.20
2023-11-18T00:17:11.772Z,4.25
2023-11-18T00:19:38.688Z,4.97
2023-11-18T00:22:07.400Z,4.60
2023-11-18T00:24:35.900Z,3.80
2023-11-18T00:27:09.048Z,2.60
2023-11-18T00:32:04.277Z,3.00
2023-11-18T00:34:31.429Z,4.72
2023-11-18T00:36:58.916Z,5.40
2023-11-18T00:39:26.478Z,4.82
2023-11-18T00:41:53.433Z,4.43
2023-11-18T00:44:20.386Z,4.30
2023-11-18T00:46:47.368Z,5.90
2023-11-18T00:49:14.351Z,4.30
2023-11-18T00:51:42.523Z,4.22
2023-11-18T00:54:09.476Z,3.40
2023-11-18T00:56:36.409Z,7.75
2023-11-18T00:59:03.318Z,7.97
2023-11-18T01:01:30.774Z,6.07
2023-11-18T01:04:00.645Z,5.88
2023-11-18T01:06:28.320Z,3.58
2023-11-18T01:08:55.279Z,3.42
2023-11-18T01:11:23.682Z,3.78
2023-11-18T01:13:51.114Z,5.43
2023-11-18T01:16:18.411Z,2.63
2023-11-18T01:18:45.709Z,3.88
2023-11-18T01:21:12.925Z,3.80
2023-11-18T01:23:43.864Z,2.28
2023-11-18T01:26:11.241Z,3.22
2023-11-18T01:28:40.422Z,4.38
2023-11-18T01:31:10.941Z,3.20
2023-11-18T01:33:38.754Z,3.97
2023-11-18T01:36:06.117Z,2.17
2023-11-18T01:38:32.913Z,3.22
2023-11-18T01:41:01.886Z,2.65
2023-11-18T01:43:28.702Z,3.33
2023-11-18T01:45:55.562Z,3.67
2023-11-18T01:48:23.788Z,3.33
2023-11-18T01:50:50.616Z,3.17
2023-11-18T01:53:18.287Z,4.28
2023-11-18T01:55:45.060Z,3.13
2023-11-18T01:58:12.325Z,3.72
2023-11-18T02:00:42.814Z,3.17
2023-11-18T02:03:10.766Z,4.20
2023-11-18T02:05:39.782Z,3.35
2023-11-18T02:08:08.459Z,3.35
2023-11-18T02:10:38.272Z,4.03
2023-11-18T02:13:14.326Z,3.83
2023-11-18T02:15:41.861Z,3.35
2023-11-18T02:18:12.175Z,3.05
2023-11-18T02:20:39.360Z,5.63
2023-11-18T02:23:08.707Z,4.25
2023-11-18T02:25:35.889Z,3.90
2023-11-18T02:28:02.773Z,5.85
2023-11-18T02:30:32.198Z,4.53
2023-11-18T02:33:07.185Z,3.70
2023-11-18T02:35:38.672Z,6.68
2023-11-18T02:38:11.705Z,3.50
2023-11-18T02:43:07.434Z,4.68
2023-11-18T02:45:35.688Z,4.07
2023-11-18T02:48:02.673Z,7.47
2023-11-18T02:50:30.568Z,3.75
2023-11-18T02:52:57.444Z,7.10
2023-11-18T02:55:25.653Z,4.28
2023-11-18T02:57:55.450Z,6.75
2023-11-18T03:00:25.080Z,4.10
2023-11-18T03:02:53.749Z,4.72
2023-11-18T03:05:22.070Z,3.53
2023-11-18T03:07:51.562Z,6.47
2023-11-18T03:10:24.436Z,3.47
2023-11-18T03:12:53.928Z,3.95
2023-11-18T03:15:22.896Z,6.78
2023-11-18T03:17:51.585Z,4.78
2023-11-18T03:20:20.282Z,6.88
2023-11-18T03:22:48.088Z,4.90
2023-11-18T03:25:15.373Z,3.10
2023-11-18T03:27:42.128Z,3.17
2023-11-18T03:30:10.142Z,4.82
2023-11-18T03:32:37.623Z,4.10
2023-11-18T03:35:08.654Z,5.32
2023-11-18T03:37:44.797Z,3.40
2023-11-18T03:40:14.425Z,3.40
2023-11-18T03:42:44.616Z,4.78
2023-11-18T03:45:11.716Z,4.35
2023-11-18T03:47:38.983Z,3.60
2023-11-18T03:50:06.950Z,5.13
2023-11-18T03:52:33.916Z,3.00
2023-11-18T03:55:00.774Z,3.30
2023-11-18T03:57:27.547Z,4.07
2023-11-18T03:59:54.282Z,3.25
2023-11-18T04:02:21.142Z,4.85
2023-11-18T04:04:48.264Z,5.38
2023-11-18T04:07:15.057Z,4.35
2023-11-18T04:09:45.177Z,2.97
2023-11-18T04:12:12.120Z,2.67
2023-11-18T04:14:39.656Z,3.05
2023-11-18T04:17:07.472Z,3.47
2023-11-18T04:19:36.032Z,3.78
2023-11-18T04:22:02.844Z,3.10
2023-11-18T04:24:29.710Z,3.97
2023-11-18T04:26:56.491Z,4.18
2023-11-18T04:29:24.528Z,3.72
2023-11-18T04:31:51.294Z,3.10
2023-11-18T04:34:18.032Z,3.03
2023-11-18T04:36:44.846Z,3.13
2023-11-18T04:39:17.304Z,4.85
2023-11-18T04:41:44.142Z,2.65
2023-11-18T04:44:11.005Z,3.90
2023-11-18T04:46:38.431Z,4.53
2023-11-18T04:49:06.704Z,4.00
2023-11-18T04:51:34.409Z,5.05
2023-11-18T04:54:01.328Z,2.63
2023-11-18T04:56:28.072Z,4.05
2023-11-18T04:58:55.369Z,3.92
2023-11-18T05:01:23.251Z,3.65
2023-11-18T05:03:50.402Z,3.88
2023-11-18T05:06:17.684Z,3.38
2023-11-18T05:08:44.844Z,5.20
2023-11-18T05:11:11.719Z,3.55
2023-11-18T05:13:41.515Z,7.40
2023-11-18T05:16:15.505Z,4.60
2023-11-18T05:18:42.501Z,4.68
2023-11-18T05:21:09.502Z,4.05
2023-11-18T05:23:39.081Z,3.92
2023-11-18T05:26:07.367Z,3.83
2023-11-18T05:28:34.792Z,5.60
2023-11-18T05:31:06.058Z,5.03
2023-11-18T05:33:35.793Z,3.55
2023-11-18T05:36:06.329Z,5.97
2023-11-18T05:38:36.246Z,5.72
2023-11-18T05:41:04.704Z,3.92
2023-11-18T05:43:42.238Z,4.13
2023-11-18T05:46:16.132Z,5.68
2023-11-18T05:48:44.737Z,5.78
2023-11-18T05:51:12.310Z,6.88
2023-11-18T05:53:45.276Z,4.15
2023-11-18T05:56:15.506Z,6.30
2023-11-18T05:58:44.571Z,6.63
2023-11-18T06:01:12.429Z,6.18
2023-11-18T06:03:40.725Z,5.55
2023-11-18T06:06:09.105Z,9.68
2023-11-18T06:08:36.680Z,6.00
2023-11-18T06:11:13.984Z,8.48
2023-11-18T06:13:48.434Z,5.57
2023-11-18T06:16:23.298Z,7.13
2023-11-18T06:18:52.298Z,6.13
2023-11-18T06:21:21.226Z,10.95
2023-11-18T06:23:49.784Z,7.70
2023-11-18T06:26:17.242Z,8.70
2023-11-18T06:28:45.561Z,9.15
2023-11-18T06:31:13.326Z,6.70
2023-11-18T06:33:44.927Z,7.70
2023-11-18T06:36:14.835Z,7.45
2023-11-18T06:38:47.072Z,6.43
2023-11-18T06:41:16.610Z,5.83
2023-11-18T06:44:00.883Z,7.63
2023-11-18T06:46:35.486Z,5.28
2023-11-18T06:49:08.116Z,7.65
2023-11-18T06:51:37.441Z,6.38
2023-11-18T06:54:12.245Z,6.90
2023-11-18T06:56:46.961Z,5.45
2023-11-18T06:59:16.468Z,6.88
2023-11-18T07:01:45.822Z,6.82
2023-11-18T07:04:13.328Z,6.18
2023-11-18T07:06:40.048Z,5.55
2023-11-18T07:09:28.010Z,7.97
2023-11-18T07:11:57.369Z,6.07
2023-11-18T07:14:24.267Z,6.70
2023-11-18T07:16:51.062Z,6.55
2023-11-18T07:22:30.888Z,9.50
2023-11-18T07:25:00.832Z,6.50
2023-11-18T07:27:32.562Z,8.55
2023-11-18T07:29:59.501Z,7.45
2023-11-18T07:32:29.839Z,7.95
2023-11-18T07:34:57.111Z,10.50
2023-11-18T07:37:24.008Z,8.35
2023-11-18T07:39:51.245Z,6.95
2023-11-18T07:42:19.329Z,6.68
2023-11-18T07:44:46.075Z,8.00
2023-11-18T07:47:13.000Z,8.57
2023-11-18T07:49:40.157Z,8.93
2023-11-18T07:52:07.193Z,8.07
2023-11-18T07:54:34.495Z,8.80
2023-11-18T07:57:01.414Z,8.05
2023-11-18T07:59:30.474Z,8.15
2023-11-18T08:01:57.700Z,7.10
2023-11-18T08:04:24.710Z,7.82
2023-11-18T08:06:52.545Z,8.43
2023-11-18T08:09:24.297Z,7.38
2023-11-18T08:11:51.050Z,7.80
2023-11-18T08:14:18.425Z,8.48
2023-11-18T08:16:45.397Z,6.55
2023-11-18T08:19:12.183Z,6.97
2023-11-18T08:21:42.938Z,7.93
2023-11-18T08:24:09.799Z,8.52
2023-11-18T08:26:37.164Z,7.05
2023-11-18T08:29:04.240Z,7.85
2023-11-18T08:31:32.174Z,7.00
2023-11-18T08:33:59.612Z,8.20
2023-11-18T08:36:28.630Z,5.68
2023-11-18T08:38:57.714Z,8.93
2023-11-18T08:41:24.614Z,9.60
2023-11-18T08:43:52.048Z,8.20
2023-11-18T08:46:19.103Z,8.85
2023-11-18T08:48:46.260Z,8.60
2023-11-18T08:51:14.417Z,11.55
2023-11-18T08:53:43.930Z,11.07
2023-11-18T08:56:15.543Z,8.77
2023-11-18T08:58:43.780Z,11.25
2023-11-18T09:01:17.114Z,11.85
2023-11-18T09:03:44.891Z,10.15
2023-11-18T09:06:27.246Z,9.45
2023-11-18T09:08:56.014Z,8.88
2023-11-18T09:11:25.219Z,9.55
2023-11-18T09:13:56.168Z,8.77
2023-11-18T09:16:30.969Z,7.45
2023-11-18T09:19:00.920Z,9.18
2023-11-18T09:21:31.275Z,9.15
2023-11-18T09:23:58.439Z,9.90
2023-11-18T09:26:27.683Z,7.20
2023-11-18T09:28:54.803Z,6.22
2023-11-18T09:31:23.079Z,8.90
2023-11-18T09:33:59.078Z,8.02
2023-11-18T09:36:27.631Z,10.52
2023-11-18T09:38:55.175Z,7.93
2023-11-18T09:41:25.756Z,6.10
2023-11-18T09:43:55.770Z,8.75
2023-11-18T09:46:31.606Z,7.85
2023-11-18T09:49:35.119Z,7.47
2023-11-18T09:52:06.414Z,6.88
2023-11-18T09:55:04.277Z,7.47
2023-11-18T09:57:40.879Z,5.55
2023-11-18T10:00:41.166Z,8.10
2023-11-18T10:03:09.695Z,7.07
2023-11-18T10:05:37.747Z,6.53
2023-11-18T10:08:07.085Z,5.60
2023-11-18T10:10:39.726Z,6.78
2023-11-18T10:13:20.247Z,5.95
2023-11-18T10:15:51.909Z,5.95
2023-11-18T10:18:24.594Z,4.72
2023-11-18T10:20:55.228Z,6.35
2023-11-18T10:23:23.973Z,8.02
2023-11-18T10:25:58.328Z,5.43
2023-11-18T10:28:34.108Z,6.40
2023-11-18T10:31:05.995Z,5.93
2023-11-18T10:33:38.593Z,6.43
2023-11-18T10:36:08.092Z,5.88
2023-11-18T10:38:44.735Z,6.47
2023-11-18T10:41:13.704Z,6.57
2023-11-18T10:43:43.516Z,5.70
2023-11-18T10:46:16.974Z,6.07
2023-11-18T10:48:44.581Z,8.43
2023-11-18T10:51:22.054Z,5.47
2023-11-18T10:54:02.257Z,5.45
2023-11-18T10:56:30.037Z,5.90
2023-11-18T10:58:59.445Z,7.57
2023-11-18T11:01:33.943Z,5.95
2023-11-18T11:04:02.652Z,5.45
2023-11-18T11:06:31.843Z,6.00
2023-11-18T11:09:02.142Z,5.22
2023-11-18T11:11:39.306Z,4.50
2023-11-18T11:14:06.592Z,7.15
2023-11-18T11:16:45.606Z,5.18
2023-11-18T11:19:45.954Z,4.93
2023-11-18T11:22:16.834Z,5.55
2023-11-18T11:25:11.194Z,5.20
2023-11-18T11:27:53.432Z,4.53
2023-11-18T11:30:24.062Z,6.30
2023-11-18T11:32:57.127Z,6.45
2023-11-18T11:35:26.199Z,6.80
2023-11-18T11:37:54.949Z,6.43
2023-11-18T11:40:23.793Z,4.65
2023-11-18T11:42:56.689Z,4.05
2023-11-18T11:45:29.570Z,3.60
2023-11-18T11:48:14.388Z,5.30
2023-11-18T11:50:48.722Z,3.38
2023-11-18T11:53:18.339Z,4.45
2023-11-18T11:55:54.147Z,4.05
2023-11-18T11:58:28.667Z,4.53
2023-11-18T12:00:55.729Z,2.92
2023-11-18T12:03:25.744Z,3.80
2023-11-18T12:05:57.557Z,3.17
2023-11-18T12:08:24.566Z,3.92
2023-11-18T12:10:55.762Z,6.40
2023-11-18T12:13:22.692Z,4.88
2023-11-18T12:16:05.190Z,2.95
2023-11-18T12:18:35.371Z,4.43
2023-11-18T12:21:05.541Z,3.30
2023-11-18T12:23:36.083Z,4.72
2023-11-18T12:26:04.507Z,3.75
2023-11-18T12:28:36.377Z,4.20
2023-11-18T12:31:09.236Z,6.68
2023-11-18T12:33:54.511Z,2.78
2023-11-18T12:36:40.307Z,2.38
2023-11-18T12:39:22.489Z,3.15
2023-11-18T12:41:56.947Z,3.08
2023-11-18T12:44:23.640Z,4.00
2023-11-18T12:47:15.748Z,3.05
2023-11-18T12:49:43.352Z,7.35
2023-11-18T12:52:15.984Z,3.88
2023-11-18T12:54:44.979Z,4.75
2023-11-18T12:57:15.650Z,3.08
2023-11-18T12:59:43.369Z,8.65
2023-11-18T13:02:22.576Z,3.42
2023-11-18T13:04:51.175Z,6.10
2023-11-18T13:07:18.789Z,6.07
2023-11-18T13:09:47.166Z,4.38
2023-11-18T13:12:20.461Z,5.93
2023-11-18T13:14:48.715Z,4.65
2023-11-18T13:17:18.846Z,3.70
2023-11-18T13:19:46.377Z,6.00
2023-11-18T13:22:14.915Z,5.28
2023-11-18T13:24:45.787Z,3.42
2023-11-18T13:27:17.634Z,3.90
2023-11-18T13:29:51.924Z,6.15
2023-11-18T13:32:24.531Z,3.53
2023-11-18T13:34:53.097Z,4.07
2023-11-18T13:37:23.990Z,3.15
2023-11-18T13:39:57.561Z,3.63
2023-11-18T13:44:51.938Z,3.80
2023-11-18T13:47:19.228Z,5.43
2023-11-18T13:49:47.294Z,4.15
2023-11-18T13:52:17.135Z,4.05
2023-11-18T13:54:47.099Z,6.25
2023-11-18T13:57:14.003Z,3.70
2023-11-18T13:59:41.046Z,6.68
2023-11-18T14:02:10.005Z,3.88
2023-11-18T14:04:36.878Z,2.92
2023-11-18T14:07:07.768Z,3.00
2023-11-18T14:09:37.820Z,4.05
2023-11-18T14:12:07.643Z,5.60
2023-11-18T14:14:34.976Z,3.20
2023-11-18T14:17:02.406Z,3.30
2023-11-18T14:19:30.461Z,3.40
2023-11-18T14:21:57.376Z,4.57
2023-11-18T14:24:29.665Z,3.35
2023-11-18T14:26:57.909Z,7.67
2023-11-18T14:29:27.518Z,3.28
2023-11-18T14:31:55.947Z,3.50
2023-11-18T14:34:22.857Z,4.53
2023-11-18T14:36:50.161Z,4.18
2023-11-18T14:39:19.504Z,4.70
2023-11-18T14:41:47.091Z,3.83
2023-11-18T14:44:13.941Z,3.83
2023-11-18T14:46:42.527Z,6.30
2023-11-18T14:49:11.514Z,5.20
2023-11-18T14:51:38.733Z,3.88
2023-11-18T14:54:07.260Z,6.07
2023-11-18T14:56:36.365Z,4.15
2023-11-18T14:59:06.865Z,4.20
2023-11-18T15:01:34.200Z,3.67
2023-11-18T15:04:01.263Z,3.13
2023-11-18T15:06:28.859Z,4.20
2023-11-18T15:08:58.566Z,3.10
2023-11-18T15:11:25.768Z,3.38
2023-11-18T15:13:57.790Z,3.60
2023-11-18T15:16:24.739Z,4.10
2023-11-18T15:18:54.021Z,3.40
2023-11-18T15:21:21.315Z,3.78
2023-11-18T15:23:49.544Z,4.50
2023-11-18T15:26:16.706Z,3.05
2023-11-18T15:28:43.603Z,2.83
2023-11-18T15:31:10.472Z,3.25
2023-11-18T15:33:37.219Z,2.65
2023-11-18T15:36:04.778Z,2.20
2023-11-18T15:38:31.553Z,2.78
2023-11-18T15:40:58.410Z,3.60
2023-11-18T15:43:25.141Z,3.47
2023-11-18T15:45:52.017Z,1.45
2023-11-18T15:48:18.900Z,3.25
2023-11-18T15:50:45.800Z,2.22
2023-11-18T15:53:15.813Z,2.63
2023-11-18T15:55:45.201Z,4.28
2023-11-18T15:58:12.058Z,3.15
2023-11-18T16:00:39.272Z,4.13
2023-11-18T16:03:10.144Z,3.00
2023-11-18T16:05:37.390Z,3.28
2023-11-18T16:08:05.792Z,2.50
2023-11-18T16:10:33.870Z,2.80
2023-11-18T16:13:02.340Z,3.25
2023-11-18T16:15:31.074Z,2.75
2023-11-18T16:17:59.813Z,2.92
2023-11-18T16:20:30.276Z,4.35
2023-11-18T16:22:58.854Z,5.22
2023-11-18T16:25:31.449Z,3.47
2023-11-18T16:28:00.358Z,4.22
2023-11-18T16:30:32.348Z,2.47
2023-11-18T16:33:09.112Z,2.22
2023-11-18T16:35:36.254Z,6.55
2023-11-18T16:38:04.066Z,4.50
2023-11-18T16:40:31.066Z,3.83
2023-11-18T16:43:01.309Z,3.13
2023-11-18T16:45:31.432Z,2.67
2023-11-18T16:48:01.638Z,3.60
2023-11-18T16:50:30.955Z,5.78
2023-11-18T16:53:00.944Z,3.28
2023-11-18T16:55:30.541Z,3.88
2023-11-18T16:57:59.365Z,5.63
2023-11-18T17:00:27.113Z,6.85
2023-11-18T17:03:00.361Z,3.28
2023-11-18T17:05:31.920Z,4.50
2023-11-18T17:08:01.423Z,3.43
2023-11-18T17:10:29.702Z,3.75
2023-11-18T17:12:59.695Z,3.20
2023-11-18T17:15:26.985Z,4.47
2023-11-18T17:17:59.177Z,6.63
2023-11-18T17:20:26.690Z,4.37
2023-11-18T17:22:54.402Z,2.53
2023-11-18T17:25:25.201Z,3.72
2023-11-18T17:27:54.754Z,3.88
2023-11-18T17:30:22.384Z,4.05
2023-11-18T17:32:51.136Z,6.10
2023-11-18T17:35:20.291Z,1.92
2023-11-18T17:37:47.973Z,3.03
2023-11-18T17:40:16.784Z,3.55
2023-11-18T17:42:46.209Z,5.38
2023-11-18T17:45:14.461Z,4.68
2023-11-18T17:47:44.616Z,3.08
2023-11-18T17:50:14.404Z,2.92
2023-11-18T17:52:43.196Z,5.13
2023-11-18T17:55:10.316Z,5.55
2023-11-18T17:57:39.631Z,4.32
2023-11-18T18:00:13.754Z,5.38
2023-11-18T18:02:42.578Z,5.32
2023-11-18T18:05:11.692Z,2.90
2023-11-18T18:07:40.098Z,3.78
2023-11-18T18:10:10.031Z,2.22
2023-11-18T18:12:39.128Z,5.20
2023-11-18T18:15:10.044Z,4.85
2023-11-18T18:17:38.394Z,3.50
2023-11-18T18:20:11.174Z,7.50
2023-11-18T18:22:40.733Z,4.03
2023-11-18T18:25:08.544Z,5.82
2023-11-18T18:27:35.904Z,5.03
2023-11-18T18:30:04.208Z,3.83
2023-11-18T18:32:31.642Z,4.43
2023-11-18T18:34:59.323Z,3.67
2023-11-18T18:37:28.188Z,3.28
2023-11-18T18:39:57.633Z,3.63
2023-11-18T18:42:26.275Z,4.45
2023-11-18T18:44:58.080Z,3.88
2023-11-18T18:47:28.705Z,3.85
2023-11-18T18:49:57.526Z,5.35
2023-11-18T18:52:25.442Z,4.75
2023-11-18T18:54:52.767Z,3.55
2023-11-18T18:57:20.884Z,6.03
2023-11-18T18:59:48.559Z,3.70
2023-11-18T19:02:15.861Z,6.32
2023-11-18T19:04:43.947Z,3.35
2023-11-18T19:07:11.661Z,4.57
2023-11-18T19:09:39.063Z,3.47
2023-11-18T19:12:06.758Z,2.92
2023-11-18T19:14:34.086Z,5.90
2023-11-18T19:17:05.264Z,5.50
2023-11-18T19:19:32.823Z,3.20
2023-11-18T19:22:01.601Z,3.65
2023-11-18T19:24:29.213Z,3.80
2023-11-18T19:26:57.977Z,3.80
2023-11-18T19:29:25.498Z,3.50
2023-11-18T19:31:52.980Z,3.97
2023-11-18T19:34:19.840Z,3.03
2023-11-18T19:36:47.790Z,9.27
2023-11-18T19:39:14.534Z,3.78
2023-11-18T19:41:41.862Z,5.40
2023-11-18T19:44:08.640Z,3.95
2023-11-18T19:46:35.434Z,3.83
2023-11-18T19:49:02.257Z,2.40
2023-11-18T19:51:29.078Z,4.38
2023-11-18T19:53:55.812Z,3.75
2023-11-18T19:56:23.771Z,3.90
2023-11-18T19:58:50.529Z,5.90
2023-11-18T20:01:19.280Z,3.75
2023-11-18T20:03:46.937Z,1.80
2023-11-18T20:06:14.670Z,3.42
2023-11-18T20:08:41.517Z,4.00
2023-11-18T20:11:10.845Z,2.90
2023-11-18T20:13:37.882Z,3.17
2023-11-18T20:16:06.570Z,2.20
2023-11-18T20:18:33.724Z,2.88
2023-11-18T20:21:00.511Z,2.13
2023-11-18T20:23:27.974Z,4.00
2023-11-18T20:25:54.780Z,1.95
2023-11-18T20:28:21.530Z,2.70
2023-11-18T20:30:48.302Z,3.28
2023-11-18T20:33:16.608Z,2.33
2023-11-18T20:35:43.479Z,3.20
2023-11-18T20:38:11.530Z,3.30
2023-11-18T20:40:38.263Z,2.55
2023-11-18T20:43:05.093Z,2.55
2023-11-18T20:45:33.044Z,2.60
2023-11-18T20:47:59.890Z,2.40
2023-11-18T20:50:26.747Z,6.70
2023-11-18T20:52:53.561Z,5.05
2023-11-18T20:55:27.043Z,2.85
2023-11-18T20:57:54.286Z,3.53
2023-11-18T21:00:21.109Z,3.28
2023-11-18T21:02:47.953Z,1.88
2023-11-18T21:05:15.273Z,3.83
2023-11-18T21:07:42.172Z,3.67
2023-11-18T21:10:09.203Z,1.98
2023-11-18T21:12:36.090Z,3.42
2023-11-18T21:15:05.581Z,4.88
2023-11-18T21:17:32.890Z,2.65
2023-11-18T21:19:59.594Z,5.32
2023-11-18T21:22:26.375Z,4.07
2023-11-18T21:24:54.688Z,2.85
2023-11-18T21:27:21.523Z,2.30
2023-11-18T21:29:48.361Z,4.15
2023-11-18T21:32:15.218Z,3.58
2023-11-18T21:34:42.303Z,4.93
2023-11-18T21:37:12.301Z,2.05
2023-11-18T21:39:42.371Z,4.93
2023-11-18T21:42:09.687Z,3.22
2023-11-18T21:44:37.044Z,4.00
2023-11-18T21:47:04.649Z,2.95
2023-11-18T21:49:32.786Z,3.35
2023-11-18T21:51:59.724Z,3.03
2023-11-18T21:54:26.454Z,3.05
2023-11-18T21:56:53.629Z,3.10
2023-11-18T21:59:20.558Z,3.28
2023-11-18T22:01:47.401Z,4.47
2023-11-18T22:04:14.410Z,4.95
2023-11-18T22:06:41.239Z,3.90
2023-11-18T22:09:08.621Z,3.75
2023-11-18T22:11:37.755Z,4.20
2023-11-18T22:14:04.786Z,5.57
2023-11-18T22:16:31.696Z,5.43
2023-11-18T22:18:59.087Z,4.30
2023-11-18T22:21:28.496Z,4.25
2023-11-18T22:23:55.388Z,5.43
2023-11-18T22:26:23.449Z,2.20
2023-11-18T22:28:50.365Z,2.55
2023-11-18T22:31:17.950Z,3.08
2023-11-18T22:33:45.211Z,3.05
2023-11-18T22:36:12.079Z,2.38
2023-11-18T22:38:39.472Z,1.65
2023-11-18T22:41:08.855Z,1.42
2023-11-18T22:43:35.631Z,2.03
2023-11-18T22:46:02.898Z,2.17
2023-11-18T22:48:29.655Z,1.88
2023-11-18T22:50:56.432Z,2.45
2023-11-18T22:53:23.339Z,3.78
2023-11-18T22:55:52.187Z,1.13
2023-11-18T22:58:19.067Z,0.70
2023-11-18T23:00:52.642Z,1.25
2023-11-18T23:03:20.296Z,1.50
2023-11-18T23:05:47.639Z,3.08
2023-11-18T23:08:23.687Z,3.50
2023-11-18T23:10:50.803Z,2.40
2023-11-18T23:13:19.515Z,2.90
2023-11-18T23:15:47.488Z,2.28
2023-11-18T23:18:14.461Z,1.80
2023-11-18T23:20:41.637Z,1.17
2023-11-18T23:23:08.530Z,1.63
2023-11-18T23:25:35.368Z,1.15
2023-11-18T23:28:06.197Z,1.67
2023-11-18T23:30:33.179Z,0.80
2023-11-18T23:33:00.090Z,1.52
2023-11-18T23:35:27.011Z,1.73
2023-11-18T23:37:53.914Z,1.90
2023-11-18T23:40:21.368Z,0.55
2023-11-18T23:42:49.325Z,0.98
2023-11-18T23:45:16.394Z,0.63
2023-11-18T23:47:43.847Z,0.57
2023-11-18T23:50:12.435Z,0.30
2023-11-18T23:52:39.225Z,2.10
2023-11-18T23:55:06.538Z,0.30
2023-11-18T23:57:33.368Z,0.68
